sensor_id;sensor_type;location;lat;lon;timestamp;P1;durP1;ratioP1;P2;durP2;ratioP2
6926;SDS011;3503;50.07605000;8.86719200;2023-07-31T00:10:30;3.77;;;1.10;;
6926;SDS011;3503;50.07605000;8.86719200;2023-07-31T00:25:34;3.47;;;1.17;;
6926;SDS011;3503;50.07605000;8.86719200;2023-07-31T00:40:37;6.47;;;1.30;;
6926;SDS011;3503;50.07605000;8.86719200;2023-07-31T00:55:40;5.07;;;1.63;;
6926;SDS011;3503;50.07605000;8.86719200;2023-07-31T01:10:46;3.80;;;1.10;;
6926;SDS011;3503;50.07605000;8.86719200;2023-07-31T01:25:54;4.10;;;1.50;;
6926;SDS011;3503;50.07605000;8.86719200;2023-07-31T01:41:02;4.13;;;1.80;;
6926;SDS011;3503;50.07605000;8.86719200;2023-07-31T01:56:05;4.53;;;1.63;;
6926;SDS011;3503;50.07605000;8.86719200;2023-07-31T02:11:08;6.47;;;2.07;;
6926;SDS011;3503;50.07605000;8.86719200;2023-07-31T02:26:10;8.57;;;1.63;;
6926;SDS011;3503;50.07605000;8.86719200;2023-07-31T02:41:13;19.27;;;1.67;;
6926;SDS011;3503;50.07605000;8.86719200;2023-07-31T02:56:16;8.80;;;1.97;;
6926;SDS011;3503;50.07605000;8.86719200;2023-07-31T03:11:19;14.83;;;2.13;;
6926;SDS011;3503;50.07605000;8.86719200;2023-07-31T03:26:22;10.50;;;1.87;;
6926;SDS011;3503;50.07605000;8.86719200;2023-07-31T03:41:25;7.50;;;2.70;;
6926;SDS011;3503;50.07605000;8.86719200;2023-07-31T03:56:27;11.00;;;2.73;;
6926;SDS011;3503;50.07605000;8.86719200;2023-07-31T04:11:30;7.50;;;2.20;;
6926;SDS011;3503;50.07605000;8.86719200;2023-07-31T04:26:33;3.60;;;1.97;;
6926;SDS011;3503;50.07605000;8.86719200;2023-07-31T04:41:36;7.13;;;1.93;;
6926;SDS011;3503;50.07605000;8.86719200;2023-07-31T04:56:39;20.77;;;2.00;;
6926;SDS011;3503;50.07605000;8.86719200;2023-07-31T05:11:42;10.60;;;2.43;;
6926;SDS011;3503;50.07605000;8.86719200;2023-07-31T05:26:44;12.43;;;2.67;;
6926;SDS011;3503;50.07605000;8.86719200;2023-07-31T05:41:47;10.80;;;2.33;;
6926;SDS011;3503;50.07605000;8.86719200;2023-07-31T05:56:50;10.43;;;2.40;;
6926;SDS011;3503;50.07605000;8.86719200;2023-07-31T06:11:53;20.37;;;2.50;;
6926;SDS011;3503;50.07605000;8.86719200;2023-07-31T06:26:56;17.83;;;2.60;;
6926;SDS011;3503;50.07605000;8.86719200;2023-07-31T06:41:59;6.47;;;2.40;;
6926;SDS011;3503;50.07605000;8.86719200;2023-07-31T06:57:02;9.23;;;2.33;;
6926;SDS011;3503;50.07605000;8.86719200;2023-07-31T07:12:05;8.53;;;2.60;;
6926;SDS011;3503;50.07605000;8.86719200;2023-07-31T07:27:09;6.20;;;3.13;;
6926;SDS011;3503;50.07605000;8.86719200;2023-07-31T07:42:11;9.63;;;1.97;;
6926;SDS011;3503;50.07605000;8.86719200;2023-07-31T07:57:14;7.90;;;2.37;;
6926;SDS011;3503;50.07605000;8.86719200;2023-07-31T08:12:17;7.73;;;2.73;;
6926;SDS011;3503;50.07605000;8.86719200;2023-07-31T08:27:20;10.00;;;2.37;;
6926;SDS011;3503;50.07605000;8.86719200;2023-07-31T08:42:23;4.70;;;1.60;;
6926;SDS011;3503;50.07605000;8.86719200;2023-07-31T08:57:26;5.10;;;1.90;;
6926;SDS011;3503;50.07605000;8.86719200;2023-07-31T09:12:29;6.23;;;2.43;;
6926;SDS011;3503;50.07605000;8.86719200;2023-07-31T09:27:40;5.83;;;2.30;;
6926;SDS011;3503;50.07605000;8.86719200;2023-07-31T09:42:48;6.57;;;3.20;;
6926;SDS011;3503;50.07605000;8.86719200;2023-07-31T09:57:51;6.87;;;2.30;;
6926;SDS011;3503;50.07605000;8.86719200;2023-07-31T10:12:54;10.67;;;2.50;;
6926;SDS011;3503;50.07605000;8.86719200;2023-07-31T10:27:59;4.73;;;2.27;;
6926;SDS011;3503;50.07605000;8.86719200;2023-07-31T10:43:02;7.20;;;2.53;;
6926;SDS011;3503;50.07605000;8.86719200;2023-07-31T10:58:08;13.80;;;2.50;;
6926;SDS011;3503;50.07605000;8.86719200;2023-07-31T11:13:11;7.13;;;2.30;;
6926;SDS011;3503;50.07605000;8.86719200;2023-07-31T11:28:15;8.53;;;2.63;;
6926;SDS011;3503;50.07605000;8.86719200;2023-07-31T11:43:18;6.37;;;3.03;;
6926;SDS011;3503;50.07605000;8.86719200;2023-07-31T11:58:22;7.70;;;3.27;;
6926;SDS011;3503;50.07605000;8.86719200;2023-07-31T12:13:25;7.10;;;2.40;;
6926;SDS011;3503;50.07605000;8.86719200;2023-07-31T12:28:28;9.00;;;2.60;;
6926;SDS011;3503;50.07605000;8.86719200;2023-07-31T12:43:31;6.37;;;2.70;;
6926;SDS011;3503;50.07605000;8.86719200;2023-07-31T12:58:34;6.50;;;2.47;;
6926;SDS011;3503;50.07605000;8.86719200;2023-07-31T13:13:37;6.43;;;2.37;;
6926;SDS011;3503;50.07605000;8.86719200;2023-07-31T13:28:40;7.60;;;2.90;;
6926;SDS011;3503;50.07605000;8.86719200;2023-07-31T13:43:43;6.97;;;2.70;;
6926;SDS011;3503;50.07605000;8.86719200;2023-07-31T13:58:45;7.83;;;2.40;;
6926;SDS011;3503;50.07605000;8.86719200;2023-07-31T14:13:55;9.33;;;2.30;;
6926;SDS011;3503;50.07605000;8.86719200;2023-07-31T14:28:58;5.50;;;2.00;;
6926;SDS011;3503;50.07605000;8.86719200;2023-07-31T14:44:01;5.53;;;2.50;;
6926;SDS011;3503;50.07605000;8.86719200;2023-07-31T14:59:03;6.53;;;2.40;;
6926;SDS011;3503;50.07605000;8.86719200;2023-07-31T15:14:06;8.83;;;2.70;;
6926;SDS011;3503;50.07605000;8.86719200;2023-07-31T15:29:09;6.80;;;2.43;;
6926;SDS011;3503;50.07605000;8.86719200;2023-07-31T15:44:16;6.70;;;2.67;;
6926;SDS011;3503;50.07605000;8.86719200;2023-07-31T15:59:19;6.67;;;2.67;;
6926;SDS011;3503;50.07605000;8.86719200;2023-07-31T16:14:22;5.93;;;1.67;;
6926;SDS011;3503;50.07605000;8.86719200;2023-07-31T16:29:24;2.40;;;1.20;;
6926;SDS011;3503;50.07605000;8.86719200;2023-07-31T16:44:27;6.63;;;2.50;;
6926;SDS011;3503;50.07605000;8.86719200;2023-07-31T16:59:30;6.27;;;1.57;;
6926;SDS011;3503;50.07605000;8.86719200;2023-07-31T17:14:32;4.30;;;1.87;;
6926;SDS011;3503;50.07605000;8.86719200;2023-07-31T17:29:35;9.03;;;2.40;;
6926;SDS011;3503;50.07605000;8.86719200;2023-07-31T17:44:39;5.17;;;2.00;;
6926;SDS011;3503;50.07605000;8.86719200;2023-07-31T17:59:42;9.40;;;1.93;;
6926;SDS011;3503;50.07605000;8.86719200;2023-07-31T18:14:46;6.50;;;2.60;;
6926;SDS011;3503;50.07605000;8.86719200;2023-07-31T18:29:49;6.53;;;2.50;;
6926;SDS011;3503;50.07605000;8.86719200;2023-07-31T18:44:51;6.23;;;3.00;;
6926;SDS011;3503;50.07605000;8.86719200;2023-07-31T18:59:54;5.97;;;2.60;;
6926;SDS011;3503;50.07605000;8.86719200;2023-07-31T19:14:56;5.07;;;2.30;;
6926;SDS011;3503;50.07605000;8.86719200;2023-07-31T19:29:59;6.93;;;2.80;;
6926;SDS011;3503;50.07605000;8.86719200;2023-07-31T19:45:02;13.10;;;3.67;;
6926;SDS011;3503;50.07605000;8.86719200;2023-07-31T20:00:06;6.80;;;3.00;;
6926;SDS011;3503;50.07605000;8.86719200;2023-07-31T20:15:18;7.33;;;2.13;;
6926;SDS011;3503;50.07605000;8.86719200;2023-07-31T20:30:21;4.27;;;2.20;;
6926;SDS011;3503;50.07605000;8.86719200;2023-07-31T20:45:25;4.80;;;2.43;;
6926;SDS011;3503;50.07605000;8.86719200;2023-07-31T21:00:28;6.07;;;3.00;;
6926;SDS011;3503;50.07605000;8.86719200;2023-07-31T21:15:31;13.47;;;3.97;;
6926;SDS011;3503;50.07605000;8.86719200;2023-07-31T21:30:33;5.27;;;3.07;;
6926;SDS011;3503;50.07605000;8.86719200;2023-07-31T21:45:36;10.73;;;3.50;;
6926;SDS011;3503;50.07605000;8.86719200;2023-07-31T22:00:39;8.97;;;3.20;;
6926;SDS011;3503;50.07605000;8.86719200;2023-07-31T22:15:42;8.77;;;3.57;;
6926;SDS011;3503;50.07605000;8.86719200;2023-07-31T22:30:49;12.80;;;4.40;;
6926;SDS011;3503;50.07605000;8.86719200;2023-07-31T22:45:52;10.20;;;4.43;;
6926;SDS011;3503;50.07605000;8.86719200;2023-07-31T23:01:01;10.43;;;4.20;;
6926;SDS011;3503;50.07605000;8.86719200;2023-07-31T23:16:04;8.77;;;3.70;;
6926;SDS011;3503;50.07605000;8.86719200;2023-07-31T23:31:06;7.20;;;2.80;;
6926;SDS011;3503;50.07605000;8.86719200;2023-07-31T23:46:09;8.03;;;3.70;;
